Time;durP1;ratioP1;P1;durP2;ratioP2;P2;SDS_P1;SDS_P2;PMS_P1;PMS_P2;Temp;Humidity;BMP_temperature;BMP_pressure;BME280_temperature;BME280_humidity;BME280_pressure;Samples;Min_cycle;Max_cycle;Signal;HPM_P1;HPM_P2
2022/05/12 00:00:56;;;;;;;10.57;2.13;;;;;;;12.21;82.27;101483.44;5064849;28;20090;-71
2022/05/12 00:03:21;;;;;;;11.45;2.88;;;;;;;12.11;82.39;101483.75;5065701;28;20025;-70
2022/05/12 00:05:47;;;;;;;16.25;3.35;;;;;;;12.13;82.92;101491.59;5065457;28;20044;-69
2022/05/12 00:08:13;;;;;;;13.30;3.30;;;;;;;12.15;82.84;101499.47;5066727;28;20048;-71
2022/05/12 00:10:39;;;;;;;11.30;3.17;;;;;;;12.12;82.45;101497.78;5064478;28;20028;-71
2022/05/12 00:13:05;;;;;;;13.93;3.35;;;;;;;12.09;82.67;101501.41;5066233;28;20419;-70
2022/05/12 00:15:33;;;;;;;11.15;2.85;;;;;;;12.03;82.91;101501.53;5066033;28;20096;-72
2022/05/12 00:18:02;;;;;;;14.15;2.63;;;;;;;12.01;82.88;101508.63;5066118;28;20656;-70
2022/05/12 00:20:28;;;;;;;17.85;3.10;;;;;;;11.95;83.09;101514.13;5065584;28;20107;-71
2022/05/12 00:23:15;;;;;;;10.07;2.67;;;;;;;11.95;83.58;101520.25;5065715;28;20656;-70
2022/05/12 00:25:44;;;;;;;8.25;2.38;;;;;;;11.97;83.18;101517.56;5065074;28;20021;-70
2022/05/12 00:28:10;;;;;;;14.63;2.65;;;;;;;11.95;83.71;101519.41;5064530;28;20589;-71
2022/05/12 00:30:35;;;;;;;7.78;1.92;;;;;;;11.95;83.63;101524.69;5063176;28;20127;-64
2022/05/12 00:33:01;;;;;;;13.18;2.85;;;;;;;11.95;83.60;101527.34;5065721;28;20031;-69
2022/05/12 00:35:26;;;;;;;15.45;2.53;;;;;;;11.94;83.91;101528.22;5065476;28;20021;-70
2022/05/12 00:37:52;;;;;;;13.90;2.25;;;;;;;11.90;84.06;101530.09;5065394;28;20158;-70
2022/05/12 00:40:17;;;;;;;13.02;2.22;;;;;;;11.88;84.16;101535.41;5063220;28;20024;-71
2022/05/12 00:43:38;;;;;;;15.70;2.15;;;;;;;11.91;83.94;101534.47;5065114;28;20266;-71
2022/05/12 00:46:05;;;;;;;14.10;2.47;;;;;;;11.97;83.57;101543.97;5030209;28;20386;-69
2022/05/12 00:48:30;;;;;;;14.13;2.47;;;;;;;11.92;83.79;101540.63;5066508;28;20465;-69
2022/05/12 00:50:56;;;;;;;7.40;2.28;;;;;;;11.93;83.76;101534.41;5064628;28;20024;-70
2022/05/12 00:53:22;;;;;;;10.50;2.40;;;;;;;11.91;83.80;101537.09;5062746;28;20158;-69
2022/05/12 00:55:47;;;;;;;10.05;2.60;;;;;;;11.92;83.90;101535.34;5064758;28;20035;-71
2022/05/12 00:58:16;;;;;;;15.15;2.67;;;;;;;11.92;84.13;101533.53;5062664;28;20032;-69
2022/05/12 01:00:42;;;;;;;10.20;3.40;;;;;;;11.91;83.80;101528.31;5063576;28;20374;-69
2022/05/12 01:03:16;;;;;;;8.30;2.58;;;;;;;11.85;83.97;101534.63;5063210;28;20279;-69
2022/05/12 01:05:42;;;;;;;7.55;2.72;;;;;;;11.84;84.18;101539.06;5063264;28;20427;-70
2022/05/12 01:08:12;;;;;;;16.55;2.70;;;;;;;11.80;84.00;101541.81;5063521;28;20024;-70
2022/05/12 01:10:39;;;;;;;10.07;2.88;;;;;;;11.78;84.08;101544.50;5063241;28;20315;-70
2022/05/12 01:13:05;;;;;;;11.18;2.78;;;;;;;11.81;84.13;101544.44;5062927;28;20032;-70
2022/05/12 01:15:30;;;;;;;16.52;2.95;;;;;;;11.75;83.94;101549.88;5062684;28;20110;-70
2022/05/12 01:18:09;;;;;;;6.63;2.67;;;;;;;11.74;84.27;101558.72;5064268;28;20111;-70
2022/05/12 01:20:35;;;;;;;11.63;3.53;;;;;;;11.72;84.15;101549.94;5064159;28;20467;-71
2022/05/12 01:23:05;;;;;;;12.23;4.25;;;;;;;11.74;84.40;101549.00;5064893;28;20077;-70
2022/05/12 01:25:31;;;;;;;9.98;4.00;;;;;;;11.75;84.54;101563.91;5064275;28;20108;-69
2022/05/12 01:27:57;;;;;;;9.30;4.40;;;;;;;11.71;84.66;101561.44;5063635;28;20032;-72
2022/05/12 01:30:24;;;;;;;10.02;4.47;;;;;;;11.75;84.83;101555.16;5064439;28;20025;-70
2022/05/12 01:32:50;;;;;;;11.02;4.30;;;;;;;11.80;84.35;101561.16;5063310;28;20060;-70
2022/05/12 01:35:19;;;;;;;10.82;4.43;;;;;;;11.76;84.33;101554.22;5063963;28;20474;-71
2022/05/12 01:37:45;;;;;;;9.48;4.50;;;;;;;11.77;84.53;101561.25;5064001;28;20067;-71
2022/05/12 01:40:14;;;;;;;8.00;3.78;;;;;;;11.80;84.26;101561.16;5064881;28;20021;-70
2022/05/12 01:42:40;;;;;;;12.13;4.32;;;;;;;11.77;84.41;101558.59;5065139;28;20028;-73
2022/05/12 01:45:06;;;;;;;12.10;4.38;;;;;;;11.74;84.72;101564.00;5064648;28;20093;-71
2022/05/12 01:47:33;;;;;;;13.73;5.18;;;;;;;11.72;84.57;101573.72;5064382;28;20035;-69
2022/05/12 01:49:58;;;;;;;13.13;4.68;;;;;;;11.72;84.52;101573.72;5064439;28;20024;-72
2022/05/12 01:52:23;;;;;;;7.43;4.07;;;;;;;11.75;84.63;101576.28;5061015;28;20483;-70
2022/05/12 01:54:49;;;;;;;9.18;4.13;;;;;;;11.74;84.23;101583.31;5064451;28;20050;-72
2022/05/12 01:57:14;;;;;;;6.82;3.58;;;;;;;11.63;83.80;101582.75;5064191;28;20075;-71
2022/05/12 01:59:40;;;;;;;6.43;3.63;;;;;;;11.66;84.00;101581.78;5064783;28;20058;-73
2022/05/12 02:02:05;;;;;;;11.77;4.35;;;;;;;11.66;84.21;101580.03;5063364;28;20033;-70
2022/05/12 02:04:30;;;;;;;7.55;4.32;;;;;;;11.67;84.54;101583.50;5064026;28;20028;-68
2022/05/12 02:06:56;;;;;;;13.25;4.18;;;;;;;11.71;84.45;101587.84;5062780;28;20048;-71
2022/05/12 02:09:21;;;;;;;6.50;3.90;;;;;;;11.66;84.63;101585.31;5063580;28;20064;-71
2022/05/12 02:11:47;;;;;;;9.60;4.30;;;;;;;11.65;84.15;101595.91;5061918;28;20100;-71
2022/05/12 02:14:12;;;;;;;8.82;4.03;;;;;;;11.70;84.17;101599.28;5063293;28;20206;-71
2022/05/12 02:16:38;;;;;;;12.48;5.05;;;;;;;11.71;84.04;101608.94;5062390;28;20020;-70
2022/05/12 02:19:05;;;;;;;11.30;4.35;;;;;;;11.68;84.39;101606.38;5063906;28;20070;-71
2022/05/12 02:21:31;;;;;;;7.57;4.25;;;;;;;11.68;84.20;101606.38;5078658;28;20453;-70
2022/05/12 02:23:56;;;;;;;6.97;4.20;;;;;;;11.67;84.33;101609.91;5063727;28;20073;-71
2022/05/12 02:26:21;;;;;;;10.23;4.78;;;;;;;11.67;83.97;101604.63;5062120;28;20045;-70
2022/05/12 02:28:47;;;;;;;15.52;4.88;;;;;;;11.67;83.99;101605.50;5063982;28;20035;-70
2022/05/12 02:31:12;;;;;;;13.48;5.13;;;;;;;11.68;84.05;101619.59;5059420;28;20471;-69
2022/05/12 02:33:38;;;;;;;10.93;4.70;;;;;;;11.66;83.74;101619.63;5063590;28;20438;-70
2022/05/12 02:36:04;;;;;;;12.73;5.03;;;;;;;11.57;83.77;101620.75;5062446;28;20078;-69
2022/05/12 02:38:30;;;;;;;8.65;4.47;;;;;;;11.56;83.84;101628.69;5064612;28;20028;-69
2022/05/12 02:40:55;;;;;;;13.43;5.47;;;;;;;11.56;83.83;101636.59;5066638;28;20028;-71
2022/05/12 02:43:23;;;;;;;9.90;5.55;;;;;;;11.57;84.14;101633.06;5065920;28;20570;-72
2022/05/12 02:46:06;;;;;;;14.00;5.25;;;;;;;11.50;84.02;101640.28;5066056;28;20501;-69
2022/05/12 02:48:38;;;;;;;10.80;5.18;;;;;;;11.46;83.86;101630.69;5066261;28;20136;-66
2022/05/12 02:51:03;;;;;;;9.63;5.05;;;;;;;11.48;84.13;101642.06;5066925;28;20094;-70
2022/05/12 02:53:29;;;;;;;7.93;5.60;;;;;;;11.47;84.31;101635.06;5066429;28;20029;-71
2022/05/12 02:55:55;;;;;;;11.85;5.63;;;;;;;11.40;84.26;101639.63;5067070;28;20116;-72
2022/05/12 02:58:20;;;;;;;12.82;6.38;;;;;;;11.40;84.29;101639.63;5066277;28;20127;-70
2022/05/12 03:00:46;;;;;;;15.65;6.20;;;;;;;11.38;84.63;101652.84;5065312;28;20016;-72
2022/05/12 03:03:12;;;;;;;15.55;6.70;;;;;;;11.40;84.22;101654.56;5066431;28;20197;-71
2022/05/12 03:05:38;;;;;;;16.42;6.60;;;;;;;11.40;84.31;101650.16;5066006;28;20041;-71
2022/05/12 03:08:04;;;;;;;10.15;6.13;;;;;;;11.37;84.67;101652.88;5066387;28;20387;-71
2022/05/12 03:10:31;;;;;;;14.57;6.75;;;;;;;11.37;84.48;101655.53;5066972;28;20029;-71
2022/05/12 03:12:56;;;;;;;13.07;7.55;;;;;;;11.34;84.57;101660.88;5067025;28;20017;-70
2022/05/12 03:15:21;;;;;;;15.90;6.88;;;;;;;11.33;84.86;101654.75;5065277;28;20090;-71
2022/05/12 03:17:47;;;;;;;12.40;6.70;;;;;;;11.32;84.49;101668.81;5067117;28;20025;-71
2022/05/12 03:20:14;;;;;;;8.63;5.78;;;;;;;11.31;84.30;101667.09;5059538;28;20020;-69
2022/05/12 03:22:40;;;;;;;13.45;5.90;;;;;;;11.27;84.16;101670.72;5047189;28;20029;-70
2022/05/12 03:25:09;;;;;;;9.90;5.90;;;;;;;11.22;84.44;101675.22;5050341;28;20031;-70
2022/05/12 03:27:34;;;;;;;12.60;5.80;;;;;;;11.20;84.24;101679.69;5067251;28;20028;-70
2022/05/12 03:29:59;;;;;;;15.02;6.00;;;;;;;11.20;84.65;101687.59;5065958;28;20115;-71
2022/05/12 03:32:25;;;;;;;16.52;6.65;;;;;;;11.21;84.35;101678.78;5065056;28;20070;-70
2022/05/12 03:34:50;;;;;;;12.77;5.97;;;;;;;11.22;84.48;101688.41;5064270;28;20064;-71
2022/05/12 03:37:16;;;;;;;12.70;6.35;;;;;;;11.21;84.35;101700.75;5065724;28;20031;-71
2022/05/12 03:39:42;;;;;;;16.92;6.68;;;;;;;11.20;84.42;101700.78;5065497;28;20086;-70
2022/05/12 03:42:10;;;;;;;16.52;6.20;;;;;;;11.18;85.01;101706.09;5066428;28;20021;-71
2022/05/12 03:44:49;;;;;;;10.68;6.10;;;;;;;11.18;84.61;101703.47;5065637;28;20090;-71
2022/05/12 03:47:19;;;;;;;16.73;6.75;;;;;;;11.23;84.73;101701.56;5064818;28;20036;-70
2022/05/12 03:49:46;;;;;;;12.02;6.28;;;;;;;11.18;84.91;101710.50;5064986;28;20090;-70
2022/05/12 03:52:12;;;;;;;17.95;6.47;;;;;;;11.14;84.65;101707.06;5066330;28;20017;-69
2022/05/12 03:54:37;;;;;;;13.30;5.93;;;;;;;11.17;85.03;101712.25;5065879;28;20060;-69
2022/05/12 03:57:03;;;;;;;14.60;5.90;;;;;;;11.16;85.00;101717.56;5065617;28;20510;-71
2022/05/12 03:59:29;;;;;;;14.90;5.95;;;;;;;11.17;85.14;101716.69;5066250;28;20028;-69
2022/05/12 04:01:54;;;;;;;11.45;5.82;;;;;;;11.16;85.04;101721.06;5065482;28;20553;-69
2022/05/12 04:04:20;;;;;;;16.58;7.20;;;;;;;11.21;85.10;101713.06;5065931;28;20429;-69
2022/05/12 04:06:45;;;;;;;18.58;6.32;;;;;;;11.24;85.11;101718.28;5065940;28;20368;-70
2022/05/12 04:09:11;;;;;;;12.05;6.28;;;;;;;11.25;85.01;101725.28;5065667;28;20078;-70
2022/05/12 04:11:36;;;;;;;18.35;6.30;;;;;;;11.30;84.85;101725.19;5064731;28;20107;-72
2022/05/12 04:14:01;;;;;;;17.20;5.90;;;;;;;11.31;85.13;101725.13;5065523;28;20060;-71
2022/05/12 04:16:27;;;;;;;13.52;5.70;;;;;;;11.31;84.85;101727.78;5064351;28;20383;-69
2022/05/12 04:18:53;;;;;;;13.15;5.80;;;;;;;11.31;85.16;101735.69;5066005;28;20062;-71
2022/05/12 04:21:18;;;;;;;14.43;5.60;;;;;;;11.32;85.19;101737.41;5064684;28;20024;-69
2022/05/12 04:23:44;;;;;;;20.48;6.20;;;;;;;11.32;85.33;101742.69;5064613;28;20119;-69
2022/05/12 04:26:10;;;;;;;15.25;5.53;;;;;;;11.34;84.86;101746.19;5064851;28;20032;-71
2022/05/12 04:28:36;;;;;;;16.08;6.00;;;;;;;11.36;84.95;101747.03;5065827;28;20206;-70
2022/05/12 04:31:02;;;;;;;18.02;5.03;;;;;;;11.38;85.02;101745.19;5063994;28;20629;-72
2022/05/12 04:36:11;;;;;;;13.68;5.68;;;;;;;11.41;84.53;101754.81;5064376;28;20055;-70
2022/05/12 04:38:37;;;;;;;8.30;5.50;;;;;;;11.49;84.42;101754.66;5065666;28;20029;-71
2022/05/12 04:41:02;;;;;;;15.20;5.53;;;;;;;11.47;84.65;101756.47;5063909;28;20601;-71
2022/05/12 04:43:27;;;;;;;14.95;5.55;;;;;;;11.44;84.36;101764.44;5066404;28;20036;-70
2022/05/12 04:45:53;;;;;;;10.93;5.03;;;;;;;11.46;84.51;101771.44;5064180;28;20710;-70
2022/05/12 04:48:18;;;;;;;21.23;5.97;;;;;;;11.51;84.57;101776.59;5063905;28;20016;-70
2022/05/12 04:50:43;;;;;;;13.07;5.35;;;;;;;11.56;84.49;101773.88;5062957;28;20039;-69
2022/05/12 04:53:09;;;;;;;12.20;5.95;;;;;;;11.56;84.55;101772.06;5064395;28;20367;-71
2022/05/12 04:55:35;;;;;;;11.85;5.50;;;;;;;11.58;84.28;101775.56;5064910;28;20475;-71
2022/05/12 04:58:01;;;;;;;11.55;5.38;;;;;;;11.65;84.15;101778.91;5064088;28;20028;-69
2022/05/12 05:00:29;;;;;;;12.77;5.72;;;;;;;11.73;83.65;101787.53;5060745;28;20540;-70
2022/05/12 05:02:55;;;;;;;11.02;5.60;;;;;;;11.75;83.75;101783.06;5044289;28;20043;-70
2022/05/12 05:05:21;;;;;;;14.07;5.68;;;;;;;11.80;83.31;101785.59;5044547;28;20029;-70
2022/05/12 05:07:46;;;;;;;11.77;4.85;;;;;;;11.87;83.28;101788.97;5065546;28;20437;-69
2022/05/12 05:10:12;;;;;;;17.02;5.35;;;;;;;11.91;82.81;101782.72;5064052;28;20035;-70
2022/05/12 05:12:39;;;;;;;14.27;5.35;;;;;;;11.94;82.52;101789.69;5064853;28;20032;-71
2022/05/12 05:15:05;;;;;;;12.48;5.15;;;;;;;11.98;82.67;101797.50;5061343;28;20410;-70
2022/05/12 05:17:30;;;;;;;8.32;4.38;;;;;;;12.01;82.26;101794.78;5064740;28;20127;-69
2022/05/12 05:19:56;;;;;;;14.18;4.93;;;;;;;12.11;81.82;101798.13;5064236;28;20393;-69
2022/05/12 05:22:21;;;;;;;14.85;5.45;;;;;;;12.18;81.61;101806.75;5048728;28;20033;-69
2022/05/12 05:24:46;;;;;;;9.65;4.70;;;;;;;12.23;81.20;101809.25;5044460;28;20025;-70
2022/05/12 05:27:12;;;;;;;11.73;4.70;;;;;;;12.29;81.19;101813.53;5043495;28;20025;-69
2022/05/12 05:29:41;;;;;;;14.10;5.00;;;;;;;12.33;81.15;101805.47;5044490;28;20549;-70
2022/05/12 05:32:08;;;;;;;8.70;4.70;;;;;;;12.39;80.94;101807.09;5052664;28;20036;-70
2022/05/12 05:34:34;;;;;;;9.93;3.90;;;;;;;12.44;81.28;101812.25;5064467;28;20107;-71
2022/05/12 05:36:59;;;;;;;5.70;4.22;;;;;;;12.51;80.88;101821.75;5063978;28;20108;-71
2022/05/12 05:39:26;;;;;;;13.38;4.60;;;;;;;12.57;80.96;101818.97;5064040;28;20016;-69
2022/05/12 05:41:57;;;;;;;11.80;4.85;;;;;;;12.57;80.54;101821.59;5063490;28;20385;-71
2022/05/12 05:44:23;;;;;;;11.45;4.07;;;;;;;12.68;80.48;101828.38;5064088;28;20031;-69
2022/05/12 05:46:48;;;;;;;8.38;4.45;;;;;;;12.75;79.55;101832.59;5062442;28;20020;-71
2022/05/12 05:49:14;;;;;;;11.65;5.03;;;;;;;12.83;79.17;101841.19;5064009;28;20043;-70
2022/05/12 05:54:24;;;;;;;9.98;4.28;;;;;;;12.95;78.55;101850.56;5064373;28;20498;-71
2022/05/12 05:56:49;;;;;;;13.40;4.88;;;;;;;13.00;78.41;101858.34;5062590;28;20107;-70
2022/05/12 05:59:15;;;;;;;9.68;3.63;;;;;;;13.02;77.66;101856.53;5064180;28;20020;-69
2022/05/12 06:01:40;;;;;;;18.42;4.20;;;;;;;13.11;76.79;101858.94;5062394;28;20031;-69
2022/05/12 06:04:05;;;;;;;8.45;3.67;;;;;;;13.16;77.00;101858.81;5063681;28;20051;-70
2022/05/12 06:06:32;;;;;;;10.38;3.75;;;;;;;13.29;76.52;101866.38;5061371;28;20466;-69
2022/05/12 06:08:57;;;;;;;7.63;3.60;;;;;;;13.36;76.42;101868.81;5063529;28;20024;-71
2022/05/12 06:11:22;;;;;;;9.88;3.63;;;;;;;13.50;76.49;101878.16;5061585;28;20386;-69
2022/05/12 06:13:48;;;;;;;17.92;4.45;;;;;;;13.51;76.36;101875.47;5063628;28;20033;-70
2022/05/12 06:16:14;;;;;;;9.82;3.63;;;;;;;13.57;75.60;101885.00;5062234;28;20032;-72
2022/05/12 06:18:39;;;;;;;10.23;3.40;;;;;;;13.59;75.68;101892.91;5063380;28;20103;-72
2022/05/12 06:21:05;;;;;;;11.20;3.60;;;;;;;13.63;75.02;101898.06;5061901;28;20033;-70
2022/05/12 06:23:32;;;;;;;7.75;2.60;;;;;;;13.71;74.16;101902.25;5063117;28;20020;-70
2022/05/12 06:25:57;;;;;;;9.48;3.13;;;;;;;13.79;73.83;101909.97;5063953;28;20471;-68
2022/05/12 06:28:23;;;;;;;8.35;2.88;;;;;;;13.74;72.77;101908.34;5062548;28;20047;-71
2022/05/12 06:30:48;;;;;;;9.00;3.17;;;;;;;13.87;72.31;101913.25;5062729;28;20025;-68
2022/05/12 06:33:17;;;;;;;8.60;2.50;;;;;;;14.00;72.24;101909.31;5062913;28;20101;-70
2022/05/12 06:35:43;;;;;;;8.55;2.38;;;;;;;14.06;71.42;101916.19;5045563;28;20028;-70
2022/05/12 06:38:09;;;;;;;5.65;2.38;;;;;;;14.02;71.01;101917.22;5062202;28;20536;-71
2022/05/12 06:40:34;;;;;;;6.65;2.28;;;;;;;14.13;70.46;101919.53;5063008;28;20033;-69
2022/05/12 06:43:07;;;;;;;6.55;2.45;;;;;;;14.22;69.95;101924.56;5063029;28;20331;-69
2022/05/12 06:45:33;;;;;;;5.68;1.85;;;;;;;14.24;69.78;101921.84;5061660;28;20518;-69
2022/05/12 06:47:58;;;;;;;10.35;2.25;;;;;;;14.30;69.63;101929.59;5063255;28;20074;-69
2022/05/12 06:50:29;;;;;;;7.22;2.28;;;;;;;14.28;68.68;101927.00;5063679;28;20063;-72
2022/05/12 06:52:55;;;;;;;4.93;2.00;;;;;;;14.35;67.90;101930.31;5062298;28;20498;-73
2022/05/12 06:55:22;;;;;;;7.38;2.30;;;;;;;14.42;68.00;101930.97;5063844;28;20245;-72
2022/05/12 06:57:47;;;;;;;7.93;2.45;;;;;;;14.47;68.06;101934.34;5062514;28;20017;-69
2022/05/12 07:00:16;;;;;;;5.80;1.98;;;;;;;14.52;67.96;101931.56;5042680;28;20086;-71
2022/05/12 07:02:45;;;;;;;9.80;2.05;;;;;;;14.59;66.86;101933.06;5044811;28;20032;-69
2022/05/12 07:05:11;;;;;;;4.50;1.77;;;;;;;14.62;66.17;101932.97;5063670;28;20021;-74
2022/05/12 07:07:36;;;;;;;4.55;1.73;;;;;;;14.66;66.02;101942.56;5062334;28;20378;-71
2022/05/12 07:10:04;;;;;;;5.65;1.85;;;;;;;14.65;65.85;101945.25;5063344;28;20021;-69
2022/05/12 07:12:29;;;;;;;11.27;2.10;;;;;;;14.69;65.90;101954.00;5063081;28;20048;-70
2022/05/12 07:14:56;;;;;;;5.90;1.98;;;;;;;14.82;64.59;101950.03;5062486;28;20045;-70
2022/05/12 07:17:22;;;;;;;6.00;1.63;;;;;;;14.92;64.03;101947.94;5062780;28;20617;-71
2022/05/12 07:19:48;;;;;;;5.13;1.60;;;;;;;14.90;63.58;101963.91;5063012;28;20386;-71
2022/05/12 07:27:42;;;;;;;5.75;1.67;;;;;;;15.15;62.38;101957.72;5065128;28;20035;-70
2022/05/12 07:30:08;;;;;;;7.05;2.03;;;;;;;15.29;62.67;101964.34;5065841;28;20025;-72
2022/05/12 07:32:37;;;;;;;6.32;1.70;;;;;;;15.28;61.31;101962.59;5048040;28;20024;-70
2022/05/12 07:35:06;;;;;;;7.07;1.50;;;;;;;15.25;60.66;101968.03;5066124;28;20032;-70
2022/05/12 07:37:31;;;;;;;7.18;1.83;;;;;;;15.39;59.96;101972.84;5066218;28;20507;-68
2022/05/12 07:39:56;;;;;;;5.47;1.35;;;;;;;15.46;60.66;101979.66;5066553;28;20048;-72
2022/05/12 07:42:22;;;;;;;4.35;1.38;;;;;;;15.46;59.33;101973.47;5066244;28;20024;-69
2022/05/12 07:44:47;;;;;;;4.22;1.40;;;;;;;15.45;60.60;101967.31;5064876;28;20145;-70
2022/05/12 07:47:15;;;;;;;5.22;1.75;;;;;;;15.44;60.63;101986.81;5066410;28;20069;-69
2022/05/12 07:49:41;;;;;;;4.82;1.67;;;;;;;15.56;58.51;101979.34;5065314;28;20408;-70
2022/05/12 07:52:09;;;;;;;6.68;1.48;;;;;;;15.62;59.46;101974.66;5066030;28;20025;-70
2022/05/12 07:54:36;;;;;;;6.47;1.40;;;;;;;15.73;59.69;101978.69;5064959;28;20501;-72
2022/05/12 07:57:01;;;;;;;6.22;1.33;;;;;;;15.81;59.53;101976.63;5065509;28;20155;-69
2022/05/12 07:59:32;;;;;;;5.55;1.55;;;;;;;15.84;57.59;101987.16;5064909;28;20024;-73
2022/05/12 08:01:58;;;;;;;5.70;1.70;;;;;;;15.80;58.92;101980.19;5066529;28;20116;-71
2022/05/12 08:04:27;;;;;;;6.85;1.85;;;;;;;15.90;57.45;101981.56;5064897;28;20396;-68
2022/05/12 08:06:52;;;;;;;6.03;1.50;;;;;;;15.88;56.90;101980.78;5064156;28;20033;-72
2022/05/12 08:09:17;;;;;;;7.75;1.40;;;;;;;15.96;56.58;101979.63;5057984;28;20036;-71
2022/05/12 08:11:44;;;;;;;3.88;1.23;;;;;;;16.02;55.81;101984.75;5046289;28;20028;-73
2022/05/12 08:14:10;;;;;;;4.90;1.30;;;;;;;16.11;55.68;101987.03;5047256;28;20249;-68
2022/05/12 08:16:37;;;;;;;6.30;1.40;;;;;;;16.20;55.07;101987.59;5065474;28;20387;-71
2022/05/12 08:19:02;;;;;;;7.38;1.50;;;;;;;16.21;53.85;101984.88;5064240;28;20031;-70
2022/05/12 08:21:28;;;;;;;6.07;1.25;;;;;;;16.20;54.88;101992.91;5066474;28;20028;-68
2022/05/12 08:23:53;;;;;;;4.53;1.63;;;;;;;16.36;54.40;101983.41;5065097;28;20106;-70
2022/05/12 08:26:19;;;;;;;6.47;1.50;;;;;;;16.34;53.71;101990.56;5065114;28;20033;-71
2022/05/12 08:28:45;;;;;;;6.50;1.58;;;;;;;16.48;53.53;101991.81;5065416;28;20525;-69
2022/05/12 08:31:10;;;;;;;4.43;1.40;;;;;;;16.50;52.65;101995.28;5064644;28;20032;-69
2022/05/12 08:33:36;;;;;;;4.75;1.55;;;;;;;16.41;53.25;101996.53;5064891;28;20024;-70
2022/05/12 08:36:02;;;;;;;4.97;1.80;;;;;;;16.51;53.08;101997.00;5063940;28;20107;-71
2022/05/12 08:38:27;;;;;;;3.47;1.38;;;;;;;16.64;53.20;101992.91;5065368;28;20123;-70
2022/05/12 08:41:16;;;;;;;5.30;1.17;;;;;;;16.56;51.62;102003.00;5065082;28;20021;-70
2022/05/12 08:43:44;;;;;;;2.63;1.00;;;;;;;16.81;51.79;101999.34;5066491;28;20032;-68
2022/05/12 08:46:12;;;;;;;5.00;1.23;;;;;;;16.83;51.40;101997.47;5064815;28;20111;-69
2022/05/12 08:48:39;;;;;;;4.97;1.37;;;;;;;16.73;52.30;102001.44;5081956;28;20120;-71
2022/05/12 08:51:05;;;;;;;3.08;1.20;;;;;;;16.96;52.52;102013.78;5064290;28;20029;-69
2022/05/12 08:53:35;;;;;;;5.20;1.40;;;;;;;17.07;51.57;102010.72;5066771;28;20021;-69
2022/05/12 08:56:01;;;;;;;9.32;1.42;;;;;;;17.14;50.50;102011.31;5066148;28;20101;-73
2022/05/12 08:58:35;;;;;;;3.38;1.50;;;;;;;17.08;49.92;102017.75;5062567;28;20518;-68
2022/05/12 09:01:04;;;;;;;6.15;1.50;;;;;;;17.14;49.92;102022.84;5064193;28;20089;-70
2022/05/12 09:03:48;;;;;;;4.97;1.17;;;;;;;17.16;48.08;102012.13;5062639;28;20028;-69
2022/05/12 09:06:21;;;;;;;4.45;1.55;;;;;;;17.30;48.00;102006.16;5064925;28;20027;-70
2022/05/12 09:08:57;;;;;;;4.20;1.20;;;;;;;17.27;49.18;102004.50;5062777;28;20035;-70
2022/05/12 09:11:45;;;;;;;4.45;1.45;;;;;;;17.10;49.51;102013.22;5063994;28;20032;-70
2022/05/12 09:14:31;;;;;;;3.42;1.05;;;;;;;17.38;49.76;102004.03;5063240;28;20045;-70
2022/05/12 09:16:58;;;;;;;5.82;1.60;;;;;;;17.73;47.66;101999.84;5064122;28;20096;-68
2022/05/12 09:19:25;;;;;;;3.38;1.20;;;;;;;17.76;47.83;102000.56;5062694;28;20037;-73
2022/05/12 09:21:51;;;;;;;4.13;1.73;;;;;;;17.90;48.60;101999.06;5046923;28;20122;-69
2022/05/12 09:24:16;;;;;;;4.90;1.65;;;;;;;17.80;49.97;102012.84;5063710;28;20096;-71
2022/05/12 09:26:48;;;;;;;5.50;1.48;;;;;;;17.93;47.17;102007.78;5062672;28;20040;-69
2022/05/12 09:29:27;;;;;;;2.65;1.20;;;;;;;18.25;45.05;102003.69;5063380;28;20108;-71
2022/05/12 09:31:57;;;;;;;9.18;1.48;;;;;;;18.44;47.88;102009.88;5064334;28;20028;-67
2022/05/12 09:34:36;;;;;;;5.78;1.50;;;;;;;18.62;48.11;102019.72;5064034;28;20386;-69
2022/05/12 09:37:16;;;;;;;4.40;1.40;;;;;;;18.65;45.52;102009.75;5064230;28;20024;-68
2022/05/12 09:39:49;;;;;;;3.95;1.55;;;;;;;18.63;46.23;102013.47;5063611;28;20115;-73
2022/05/12 09:42:38;;;;;;;7.03;1.58;;;;;;;18.88;44.54;102013.09;5061868;28;20162;-68
2022/05/12 09:45:08;;;;;;;3.80;1.67;;;;;;;19.10;45.51;102012.00;5061758;28;20296;-71
2022/05/12 09:47:34;;;;;;;3.38;1.55;;;;;;;19.06;45.86;102005.91;5060060;28;20016;-70
2022/05/12 09:50:19;;;;;;;2.38;1.45;;;;;;;19.14;45.23;102008.22;5062961;28;20043;-68
2022/05/12 09:52:46;;;;;;;1.35;0.90;;;;;;;19.11;42.43;102015.56;5062449;28;20032;-69
2022/05/12 09:55:11;;;;;;;5.75;1.33;;;;;;;19.26;42.67;102013.91;5062819;28;20332;-67
2022/05/12 09:57:44;;;;;;;4.50;1.05;;;;;;;19.32;41.86;102011.75;5062562;28;20049;-73
2022/05/12 10:00:24;;;;;;;4.53;1.15;;;;;;;19.27;41.15;102020.97;5062451;28;20149;-67
2022/05/12 10:08:26;;;;;;;6.80;1.38;;;;;;;19.28;42.19;102018.22;5063124;28;20455;-67
2022/05/12 10:10:56;;;;;;;2.72;1.40;;;;;;;19.47;42.60;102016.38;5063912;28;20588;-69
2022/05/12 10:13:28;;;;;;;3.80;1.48;;;;;;;19.61;43.18;102024.53;5062497;28;20073;-68
2022/05/12 10:15:54;;;;;;;5.15;1.13;;;;;;;19.63;38.90;102019.94;5063267;28;20506;-69
2022/05/12 10:18:33;;;;;;;4.47;1.20;;;;;;;19.64;38.61;102020.81;5061558;28;20020;-68
2022/05/12 10:21:27;;;;;;;4.10;1.30;;;;;;;19.74;39.29;102016.69;5063309;28;20028;-65
2022/05/12 10:24:04;;;;;;;2.75;1.20;;;;;;;19.55;40.02;102016.81;5053716;28;20195;-66
2022/05/12 10:26:36;;;;;;;6.90;1.23;;;;;;;19.75;39.67;102025.59;5062992;28;20025;-65
2022/05/12 10:29:17;;;;;;;1.77;0.75;;;;;;;19.78;39.37;102012.06;5062055;28;20243;-68
2022/05/12 10:31:56;;;;;;;3.08;1.17;;;;;;;19.75;40.12;102017.56;5062008;28;20099;-67
2022/05/12 10:34:21;;;;;;;;;;;;;;;19.79;40.33;102017.31;5061970;28;20035;-67
2022/05/12 10:37:05;;;;;;;4.10;1.20;;;;;;;19.59;41.48;102013.03;5044425;28;19916;-71
2022/05/12 10:40:02;;;;;;;5.30;1.20;;;;;;;19.57;40.03;102009.59;5043821;28;20371;-68
2022/05/12 10:43:00;;;;;;;3.40;1.30;;;;;;;19.65;39.41;102012.72;5044516;28;20035;-69
2022/05/12 10:45:31;;;;;;;3.08;1.30;;;;;;;19.83;40.32;102021.53;4972665;28;20054;-67
2022/05/12 10:48:20;;;;;;;3.35;1.13;;;;;;;19.53;40.96;102008.88;5043297;28;20021;-68
2022/05/12 10:50:58;;;;;;;3.83;1.33;;;;;;;19.65;40.69;102018.06;5047858;28;20066;-66
2022/05/12 10:53:27;;;;;;;7.17;1.60;;;;;;;19.74;40.12;102015.84;5063175;28;20033;-67
2022/05/12 10:56:18;;;;;;;2.40;0.80;;;;;;;19.72;38.86;102007.03;5062916;28;20356;-69
2022/05/12 10:59:12;;;;;;;6.63;1.23;;;;;;;19.49;40.50;102003.78;5062405;28;20049;-68
2022/05/12 11:01:46;;;;;;;3.60;0.90;;;;;;;19.21;41.79;102010.59;5064636;28;20028;-68
2022/05/12 11:04:41;;;;;;;0.82;0.77;;;;;;;19.11;40.74;102004.88;5065726;28;20312;-67
2022/05/12 11:07:27;;;;;;;4.13;1.15;;;;;;;19.12;41.42;102002.13;5064402;28;20032;-69
2022/05/12 11:10:26;;;;;;;2.13;0.95;;;;;;;19.36;41.63;102001.78;5065301;28;20025;-67
2022/05/12 11:12:55;;;;;;;3.50;1.40;;;;;;;19.62;41.22;102004.00;5066369;28;20041;-69
2022/05/12 11:15:20;;;;;;;;;;;;;;;19.59;42.71;102006.84;5064553;28;20082;-69
2022/05/12 11:17:56;;;;;;;4.43;1.17;;;;;;;19.63;41.73;102003.03;5066376;28;20027;-67
2022/05/12 11:20:24;;;;;;;7.13;1.20;;;;;;;20.22;38.88;102001.69;5081514;28;20272;-68
2022/05/12 11:23:08;;;;;;;3.50;1.00;;;;;;;20.50;38.42;102000.09;5066542;28;20043;-70
2022/05/12 11:25:40;;;;;;;4.97;1.00;;;;;;;20.73;37.76;102003.22;5065925;28;20064;-68
2022/05/12 11:31:39;;;;;;;2.08;1.20;;;;;;;21.12;36.29;101993.78;5065117;28;20497;-67
2022/05/12 11:34:10;;;;;;;2.03;1.15;;;;;;;21.17;36.30;101997.06;5060649;28;20553;-69
2022/05/12 11:36:43;;;;;;;7.28;1.40;;;;;;;21.19;38.41;101991.63;5064474;28;20028;-68
2022/05/12 11:39:31;;;;;;;3.95;1.02;;;;;;;21.31;37.55;101998.03;5066462;28;20021;-68
2022/05/12 11:42:20;;;;;;;2.08;0.82;;;;;;;21.08;35.21;101997.63;5064875;28;20064;-67
2022/05/12 11:44:56;;;;;;;2.83;1.10;;;;;;;20.88;34.15;102002.31;5065708;28;20039;-69
2022/05/12 11:47:40;;;;;;;1.13;0.63;;;;;;;21.16;34.44;102006.03;5064692;28;20102;-72
2022/05/12 11:50:47;;;;;;;1.45;1.10;;;;;;;21.06;35.32;101989.66;5065979;28;20033;-66